createdAt,value
2023-03-27T00:01:24.701Z,100.00
2023-03-27T00:03:53.541Z,100.00
2023-03-27T00:06:21.945Z,100.00
2023-03-27T00:08:51.159Z,100.00
2023-03-27T00:11:19.572Z,100.00
2023-03-27T00:13:50.649Z,100.00
2023-03-27T00:16:23.714Z,100.00
2023-03-27T00:18:50.566Z,100.00
2023-03-27T00:21:17.292Z,100.00
2023-03-27T00:23:44.254Z,100.00
2023-03-27T00:26:12.209Z,100.00
2023-03-27T00:28:39.186Z,100.00
2023-03-27T00:31:10.824Z,100.00
2023-03-27T00:33:37.674Z,100.00
2023-03-27T00:36:04.576Z,100.00
2023-03-27T00:38:31.444Z,100.00
2023-03-27T00:40:58.393Z,100.00
2023-03-27T00:43:34.620Z,100.00
2023-03-27T00:46:28.004Z,100.00
2023-03-27T00:48:56.190Z,100.00
2023-03-27T00:51:25.094Z,100.00
2023-03-27T00:53:52.864Z,100.00
2023-03-27T00:56:20.079Z,100.00
2023-03-27T00:58:51.337Z,100.00
2023-03-27T01:01:21.792Z,100.00
2023-03-27T01:03:50.183Z,100.00
2023-03-27T01:06:17.487Z,100.00
2023-03-27T01:08:45.450Z,100.00
2023-03-27T01:11:20.181Z,100.00
2023-03-27T01:14:10.977Z,100.00
2023-03-27T01:16:45.646Z,100.00
2023-03-27T01:19:30.527Z,100.00
2023-03-27T01:22:00.033Z,100.00
2023-03-27T01:24:35.624Z,100.00
2023-03-27T01:27:16.304Z,100.00
2023-03-27T01:30:09.027Z,100.00
2023-03-27T01:32:47.830Z,100.00
2023-03-27T01:35:39.328Z,100.00
2023-03-27T01:38:37.813Z,100.00
2023-03-27T01:41:24.572Z,100.00
2023-03-27T01:44:14.890Z,100.00
2023-03-27T01:46:56.392Z,100.00
2023-03-27T01:49:34.306Z,100.00
2023-03-27T01:52:05.123Z,100.00
2023-03-27T01:54:39.197Z,100.00
2023-03-27T01:57:16.087Z,100.00
2023-03-27T01:59:49.007Z,100.00
2023-03-27T02:02:25.459Z,100.00
2023-03-27T02:05:08.910Z,100.00
2023-03-27T02:07:41.863Z,100.00
2023-03-27T02:10:15.456Z,100.00
2023-03-27T02:12:51.361Z,100.00
2023-03-27T02:15:25.575Z,100.00
2023-03-27T02:18:05.016Z,100.00
2023-03-27T02:20:39.795Z,100.00
2023-03-27T02:23:07.797Z,100.00
2023-03-27T02:25:37.128Z,100.00
2023-03-27T02:28:22.871Z,100.00
2023-03-27T02:31:33.180Z,100.00
2023-03-27T02:34:10.609Z,100.00
2023-03-27T02:37:02.435Z,100.00
2023-03-27T02:39:55.204Z,100.00
2023-03-27T02:42:50.265Z,100.00
2023-03-27T02:45:28.272Z,100.00
2023-03-27T02:48:18.903Z,100.00
2023-03-27T02:50:54.389Z,100.00
2023-03-27T02:53:24.520Z,100.00
2023-03-27T02:55:55.900Z,100.00
2023-03-27T02:58:32.341Z,100.00
2023-03-27T03:01:00.672Z,100.00
2023-03-27T03:03:38.982Z,100.00
2023-03-27T03:06:07.091Z,100.00
2023-03-27T03:08:38.356Z,100.00
2023-03-27T03:11:09.059Z,100.00
2023-03-27T03:13:36.354Z,100.00
2023-03-27T03:16:03.274Z,100.00
2023-03-27T03:18:30.300Z,100.00
2023-03-27T03:20:57.069Z,100.00
2023-03-27T03:23:24.380Z,100.00
2023-03-27T03:25:52.754Z,100.00
2023-03-27T03:28:19.675Z,100.00
2023-03-27T03:30:50.591Z,100.00
2023-03-27T03:33:19.523Z,100.00
2023-03-27T03:35:50.795Z,100.00
2023-03-27T03:38:28.093Z,100.00
2023-03-27T03:40:56.667Z,100.00
2023-03-27T03:43:25.862Z,100.00
2023-03-27T03:45:53.954Z,100.00
2023-03-27T03:48:22.149Z,100.00
2023-03-27T03:50:49.794Z,100.00
2023-03-27T03:53:19.090Z,100.00
2023-03-27T03:55:46.760Z,100.00
2023-03-27T03:58:13.559Z,100.00
2023-03-27T04:00:40.623Z,100.00
2023-03-27T04:03:09.442Z,100.00
2023-03-27T04:05:37.853Z,100.00
2023-03-27T04:08:08.230Z,100.00
2023-03-27T04:10:38.361Z,100.00
2023-03-27T04:13:06.412Z,100.00
2023-03-27T04:15:33.740Z,100.00
2023-03-27T04:18:01.053Z,100.00
2023-03-27T04:20:28.213Z,100.00
2023-03-27T04:22:54.970Z,100.00
2023-03-27T04:25:23.650Z,100.00
2023-03-27T04:27:51.381Z,100.00
2023-03-27T04:30:23.060Z,100.00
2023-03-27T04:32:50.970Z,100.00
2023-03-27T04:35:18.423Z,100.00
2023-03-27T04:37:46.509Z,100.00
2023-03-27T04:40:15.545Z,100.00
2023-03-27T04:42:43.986Z,100.00
2023-03-27T04:45:17.344Z,100.00
2023-03-27T04:47:44.455Z,100.00
2023-03-27T04:50:11.778Z,100.00
2023-03-27T04:52:38.820Z,100.00
2023-03-27T04:55:06.605Z,100.00
2023-03-27T04:57:34.177Z,100.00
2023-03-27T05:00:02.302Z,100.00
2023-03-27T05:02:30.689Z,100.00
2023-03-27T05:04:58.404Z,100.00
2023-03-27T05:07:26.634Z,100.00
2023-03-27T05:09:53.385Z,100.00
2023-03-27T05:12:21.589Z,100.00
2023-03-27T05:14:48.666Z,100.00
2023-03-27T05:17:18.321Z,100.00
2023-03-27T05:19:45.297Z,100.00
2023-03-27T05:22:13.843Z,100.00
2023-03-27T05:24:40.449Z,100.00
2023-03-27T05:27:07.107Z,100.00
2023-03-27T05:29:47.351Z,100.00
2023-03-27T05:32:14.676Z,100.00
2023-03-27T05:34:42.389Z,100.00
2023-03-27T05:37:09.419Z,100.00
2023-03-27T05:39:36.925Z,100.00
2023-03-27T05:42:04.252Z,100.00
2023-03-27T05:44:31.130Z,100.00
2023-03-27T05:47:01.330Z,100.00
2023-03-27T05:49:28.072Z,100.00
2023-03-27T05:51:54.714Z,100.00
2023-03-27T05:54:21.388Z,100.00
2023-03-27T05:56:47.990Z,100.00
2023-03-27T05:59:14.776Z,100.00
2023-03-27T06:01:41.396Z,100.00
2023-03-27T06:04:09.536Z,100.00
2023-03-27T06:06:36.350Z,100.00
2023-03-27T06:09:03.836Z,100.00
2023-03-27T06:11:30.878Z,100.00
2023-03-27T06:13:58.676Z,100.00
2023-03-27T06:16:25.895Z,100.00
2023-03-27T06:18:53.139Z,100.00
2023-03-27T06:21:20.928Z,100.00
2023-03-27T06:23:47.899Z,100.00
2023-03-27T06:26:15.720Z,100.00
2023-03-27T06:28:42.625Z,100.00
2023-03-27T06:31:09.427Z,100.00
2023-03-27T06:33:36.151Z,100.00
2023-03-27T06:36:02.942Z,100.00
2023-03-27T06:38:33.031Z,100.00
2023-03-27T06:41:00.749Z,100.00
2023-03-27T06:43:27.550Z,100.00
2023-03-27T06:45:54.656Z,100.00
2023-03-27T06:48:22.650Z,100.00
2023-03-27T06:50:51.767Z,100.00
2023-03-27T06:53:27.423Z,100.00
2023-03-27T06:55:55.698Z,100.00
2023-03-27T06:58:22.574Z,100.00
2023-03-27T07:00:50.438Z,100.00
2023-03-27T07:03:19.007Z,100.00
2023-03-27T07:05:45.817Z,100.00
2023-03-27T07:08:23.461Z,100.00
2023-03-27T07:11:07.968Z,100.00
2023-03-27T07:13:37.446Z,100.00
2023-03-27T07:16:04.713Z,100.00
2023-03-27T07:18:31.454Z,100.00
2023-03-27T07:20:58.379Z,100.00
2023-03-27T07:23:25.434Z,100.00
2023-03-27T07:25:56.880Z,100.00
2023-03-27T07:28:23.697Z,100.00
2023-03-27T07:30:50.393Z,100.00
2023-03-27T07:33:17.171Z,100.00
2023-03-27T07:35:47.539Z,100.00
2023-03-27T07:38:16.086Z,100.00
2023-03-27T07:40:50.521Z,100.00
2023-03-27T07:43:23.154Z,100.00
2023-03-27T07:45:49.947Z,100.00
2023-03-27T07:48:16.952Z,100.00
2023-03-27T07:50:45.049Z,100.00
2023-03-27T07:53:32.591Z,100.00
2023-03-27T07:55:59.447Z,100.00
2023-03-27T07:58:26.381Z,100.00
2023-03-27T08:00:53.354Z,100.00
2023-03-27T08:03:21.117Z,100.00
2023-03-27T08:05:56.199Z,100.00
2023-03-27T08:08:23.787Z,100.00
2023-03-27T08:10:51.714Z,100.00
2023-03-27T08:13:18.493Z,100.00
2023-03-27T08:15:45.342Z,100.00
2023-03-27T08:18:12.215Z,100.00
2023-03-27T08:20:39.314Z,100.00
2023-03-27T08:23:06.612Z,100.00
2023-03-27T08:25:33.420Z,100.00
2023-03-27T08:28:01.938Z,100.00
2023-03-27T08:30:29.144Z,100.00
2023-03-27T08:32:56.920Z,100.00
2023-03-27T08:35:23.712Z,100.00
2023-03-27T08:37:50.422Z,100.00
2023-03-27T08:40:21.666Z,100.00
2023-03-27T08:42:52.452Z,100.00
2023-03-27T08:45:42.975Z,100.00
2023-03-27T08:48:19.206Z,100.00
2023-03-27T08:50:51.925Z,100.00
2023-03-27T08:53:37.252Z,100.00
2023-03-27T08:56:04.358Z,100.00
2023-03-27T08:58:33.080Z,100.00
2023-03-27T09:01:11.828Z,100.00
2023-03-27T09:03:57.562Z,100.00
2023-03-27T09:06:38.340Z,100.00
2023-03-27T09:09:07.817Z,100.00
2023-03-27T09:11:49.577Z,100.00
2023-03-27T09:14:46.389Z,100.00
2023-03-27T09:17:22.176Z,100.00
2023-03-27T09:20:00.424Z,100.00
2023-03-27T09:22:40.816Z,100.00
2023-03-27T09:25:20.210Z,100.00
2023-03-27T09:27:48.808Z,100.00
2023-03-27T09:30:21.018Z,100.00
2023-03-27T09:32:51.611Z,100.00
2023-03-27T09:35:20.821Z,100.00
2023-03-27T09:38:02.748Z,100.00
2023-03-27T09:40:53.260Z,100.00
2023-03-27T09:43:24.826Z,100.00
2023-03-27T09:45:54.945Z,100.00
2023-03-27T09:48:38.397Z,100.00
2023-03-27T09:51:05.900Z,100.00
2023-03-27T09:53:32.749Z,100.00
2023-03-27T09:56:05.493Z,100.00
2023-03-27T09:58:44.474Z,100.00
2023-03-27T10:01:27.818Z,100.00
2023-03-27T10:03:57.416Z,100.00
2023-03-27T10:06:37.863Z,100.00
2023-03-27T10:09:22.853Z,100.00
2023-03-27T10:11:51.770Z,100.00
2023-03-27T10:14:21.409Z,100.00
2023-03-27T10:16:48.419Z,100.00
2023-03-27T10:19:29.657Z,100.00
2023-03-27T10:22:00.578Z,100.00
2023-03-27T10:24:44.407Z,100.00
2023-03-27T10:27:18.985Z,100.00
2023-03-27T10:29:45.822Z,100.00
2023-03-27T10:32:12.542Z,100.00
2023-03-27T10:34:54.394Z,100.00
2023-03-27T10:37:34.370Z,100.00
2023-03-27T10:40:03.587Z,100.00
2023-03-27T10:42:32.572Z,100.00
2023-03-27T10:45:00.577Z,100.00
2023-03-27T10:47:32.428Z,100.00
2023-03-27T10:50:17.751Z,100.00
2023-03-27T10:52:52.384Z,100.00
2023-03-27T10:55:41.512Z,100.00
2023-03-27T10:58:39.046Z,100.00
2023-03-27T11:01:40.650Z,100.00
2023-03-27T11:04:19.735Z,100.00
2023-03-27T11:06:50.796Z,100.00
2023-03-27T11:09:27.933Z,97.64
2023-03-27T11:12:04.401Z,98.28
2023-03-27T11:14:48.356Z,89.17
2023-03-27T11:17:21.326Z,83.23
2023-03-27T11:19:54.685Z,66.70
2023-03-27T11:22:48.413Z,79.72
2023-03-27T11:25:28.564Z,83.81
2023-03-27T11:28:05.760Z,74.92
2023-03-27T11:30:50.995Z,70.36
2023-03-27T11:33:29.408Z,76.20
2023-03-27T11:36:37.970Z,72.69
2023-03-27T11:39:23.186Z,68.30
2023-03-27T11:42:02.556Z,87.05
2023-03-27T11:44:32.221Z,86.76
2023-03-27T11:47:34.034Z,92.57
2023-03-27T11:50:25.115Z,99.25
2023-03-27T11:53:12.270Z,82.88
2023-03-27T11:56:02.970Z,82.61
2023-03-27T11:58:43.858Z,71.51
2023-03-27T12:01:17.315Z,77.40
2023-03-27T12:04:33.945Z,70.40
2023-03-27T12:07:36.642Z,57.72
2023-03-27T12:10:12.020Z,55.63
2023-03-27T12:12:47.857Z,55.60
2023-03-27T12:15:40.014Z,54.39
2023-03-27T12:18:15.978Z,64.18
2023-03-27T12:21:05.909Z,69.97
2023-03-27T12:23:38.798Z,67.33
2023-03-27T12:26:40.977Z,68.44
2023-03-27T12:29:52.609Z,68.53
2023-03-27T12:32:25.032Z,79.77
2023-03-27T12:34:59.815Z,75.87
2023-03-27T12:37:31.204Z,80.15
2023-03-27T12:39:59.872Z,90.93
2023-03-27T12:42:51.850Z,71.88
2023-03-27T12:45:23.585Z,69.71
2023-03-27T12:48:10.055Z,81.50
2023-03-27T12:50:52.747Z,73.46
2023-03-27T12:53:39.586Z,74.91
2023-03-27T12:56:16.485Z,70.33
2023-03-27T12:58:43.850Z,66.26
2023-03-27T13:01:12.012Z,70.19
2023-03-27T13:03:41.750Z,71.20
2023-03-27T13:06:27.362Z,65.61
2023-03-27T13:09:25.987Z,63.53
2023-03-27T13:12:04.662Z,66.31
2023-03-27T13:14:37.805Z,72.92
2023-03-27T13:17:33.715Z,67.81
2023-03-27T13:20:27.435Z,68.62
2023-03-27T13:23:15.775Z,72.63
2023-03-27T13:26:10.561Z,70.32
2023-03-27T13:28:40.434Z,67.29
2023-03-27T13:31:11.313Z,69.29
2023-03-27T13:33:42.677Z,66.27
2023-03-27T13:36:14.541Z,64.17
2023-03-27T13:38:53.433Z,66.34
2023-03-27T13:41:44.916Z,64.42
2023-03-27T13:44:14.427Z,66.01
2023-03-27T13:46:57.318Z,58.79
2023-03-27T13:49:51.891Z,65.98
2023-03-27T13:52:32.049Z,69.04
2023-03-27T13:55:19.694Z,66.76
2023-03-27T13:58:07.423Z,66.19
2023-03-27T14:01:17.313Z,68.01
2023-03-27T14:04:11.933Z,72.33
2023-03-27T14:07:12.584Z,73.41
2023-03-27T14:10:08.515Z,74.29
2023-03-27T14:12:46.928Z,82.08
2023-03-27T14:15:32.289Z,85.27
2023-03-27T14:18:25.700Z,77.86
2023-03-27T14:20:58.413Z,82.02
2023-03-27T14:23:29.852Z,76.70
2023-03-27T14:26:05.869Z,80.75
2023-03-27T14:28:55.757Z,80.11
2023-03-27T14:31:24.177Z,74.15
2023-03-27T14:34:13.336Z,68.83
2023-03-27T14:36:52.079Z,75.56
2023-03-27T14:39:26.078Z,72.44
2023-03-27T14:42:01.510Z,70.04
2023-03-27T14:44:32.187Z,72.26
2023-03-27T14:47:11.997Z,68.10
2023-03-27T14:49:45.640Z,66.98
2023-03-27T14:52:25.120Z,63.32
2023-03-27T14:54:55.783Z,61.22
2023-03-27T14:57:25.862Z,61.60
2023-03-27T14:59:53.510Z,62.24
2023-03-27T15:02:31.860Z,63.70
2023-03-27T15:05:14.753Z,64.32
2023-03-27T15:07:43.147Z,64.91
2023-03-27T15:10:17.643Z,63.74
2023-03-27T15:12:48.124Z,66.08
2023-03-27T15:15:43.977Z,68.54
2023-03-27T15:18:16.874Z,64.93
2023-03-27T15:20:44.194Z,65.01
2023-03-27T15:23:24.072Z,66.65
2023-03-27T15:25:56.241Z,67.21
2023-03-27T15:28:31.267Z,65.30
2023-03-27T15:31:00.967Z,70.64
2023-03-27T15:33:36.978Z,65.54
2023-03-27T15:36:11.293Z,64.15
2023-03-27T15:38:39.690Z,65.19
2023-03-27T15:41:09.108Z,70.08
2023-03-27T15:43:35.942Z,68.25
2023-03-27T15:46:14.204Z,68.85
2023-03-27T15:48:45.560Z,73.86
2023-03-27T15:51:28.775Z,69.78
2023-03-27T15:53:58.515Z,69.96
2023-03-27T15:56:34.115Z,70.27
2023-03-27T15:59:04.737Z,70.54
2023-03-27T16:01:38.245Z,67.40
2023-03-27T16:04:16.721Z,63.32
2023-03-27T16:06:47.271Z,67.72
2023-03-27T16:09:35.912Z,70.02
2023-03-27T16:12:03.289Z,71.40
2023-03-27T16:14:41.728Z,67.18
2023-03-27T16:17:19.120Z,78.68
2023-03-27T16:19:57.007Z,69.22
2023-03-27T16:22:25.220Z,71.42
2023-03-27T16:24:52.862Z,67.41
2023-03-27T16:27:23.063Z,69.43
2023-03-27T16:29:51.694Z,69.39
2023-03-27T16:32:20.249Z,63.91
2023-03-27T16:34:53.323Z,66.36
2023-03-27T16:37:22.942Z,70.68
2023-03-27T16:39:50.016Z,61.48
2023-03-27T16:42:19.275Z,65.96
2023-03-27T16:44:46.185Z,63.04
2023-03-27T16:47:14.272Z,64.18
2023-03-27T16:49:41.268Z,61.78
2023-03-27T16:52:08.160Z,62.42
2023-03-27T16:54:34.905Z,62.10
2023-03-27T16:57:01.888Z,66.14
2023-03-27T16:59:28.675Z,65.03
2023-03-27T17:01:55.916Z,61.47
2023-03-27T17:04:22.941Z,63.64
2023-03-27T17:06:49.619Z,61.29
2023-03-27T17:09:16.410Z,62.51
2023-03-27T17:11:43.106Z,63.36
2023-03-27T17:14:10.551Z,62.77
2023-03-27T17:16:37.253Z,62.52
2023-03-27T17:19:04.471Z,66.62
2023-03-27T17:21:31.165Z,67.99
2023-03-27T17:23:58.318Z,65.08
2023-03-27T17:26:31.246Z,67.46
2023-03-27T17:28:59.796Z,71.57
2023-03-27T17:31:30.209Z,70.97
2023-03-27T17:33:59.786Z,71.97
2023-03-27T17:36:41.197Z,71.08
2023-03-27T17:39:11.210Z,75.15
2023-03-27T17:41:40.182Z,73.03
2023-03-27T17:44:08.956Z,70.67
2023-03-27T17:46:39.082Z,73.47
2023-03-27T17:49:08.551Z,75.23
2023-03-27T17:51:37.121Z,77.61
2023-03-27T17:54:04.639Z,80.09
2023-03-27T17:56:31.336Z,85.54
2023-03-27T17:58:57.956Z,88.76
2023-03-27T18:01:24.918Z,87.99
2023-03-27T18:03:51.865Z,90.13
2023-03-27T18:06:19.183Z,97.37
2023-03-27T18:08:46.716Z,100.00
2023-03-27T18:11:15.587Z,100.00
2023-03-27T18:13:42.766Z,100.00
2023-03-27T18:16:10.845Z,100.00
2023-03-27T18:18:39.216Z,100.00
2023-03-27T18:21:06.834Z,100.00
2023-03-27T18:23:35.087Z,100.00
2023-03-27T18:26:08.939Z,100.00
2023-03-27T18:28:35.870Z,100.00
2023-03-27T18:31:11.230Z,100.00
2023-03-27T18:33:38.082Z,100.00
2023-03-27T18:36:12.052Z,100.00
2023-03-27T18:38:40.579Z,100.00
2023-03-27T18:41:07.744Z,100.00
2023-03-27T18:43:35.247Z,100.00
2023-03-27T18:46:04.456Z,100.00
2023-03-27T18:48:31.512Z,100.00
2023-03-27T18:51:01.513Z,100.00
2023-03-27T18:53:29.047Z,100.00
2023-03-27T18:55:58.780Z,100.00
2023-03-27T18:58:27.584Z,100.00
2023-03-27T19:00:55.740Z,100.00
2023-03-27T19:03:25.501Z,100.00
2023-03-27T19:05:52.781Z,100.00
2023-03-27T19:08:21.344Z,100.00
2023-03-27T19:10:48.710Z,100.00
2023-03-27T19:13:16.031Z,100.00
2023-03-27T19:15:43.190Z,100.00
2023-03-27T19:18:10.020Z,100.00
2023-03-27T19:20:36.715Z,100.00
2023-03-27T19:23:03.701Z,100.00
2023-03-27T19:25:33.553Z,100.00
2023-03-27T19:28:01.406Z,100.00
2023-03-27T19:30:29.097Z,100.00
2023-03-27T19:32:58.096Z,100.00
2023-03-27T19:35:25.823Z,100.00
2023-03-27T19:37:52.530Z,100.00
2023-03-27T19:40:19.179Z,100.00
2023-03-27T19:42:45.840Z,100.00
2023-03-27T19:45:12.595Z,100.00
2023-03-27T19:47:39.350Z,100.00
2023-03-27T19:50:07.408Z,100.00
2023-03-27T19:52:34.306Z,100.00
2023-03-27T19:55:01.236Z,100.00
2023-03-27T19:57:29.785Z,100.00
2023-03-27T19:59:59.190Z,100.00
2023-03-27T20:02:28.653Z,100.00
2023-03-27T20:04:57.543Z,100.00
2023-03-27T20:07:27.525Z,100.00
2023-03-27T20:09:56.180Z,100.00
2023-03-27T20:12:25.807Z,100.00
2023-03-27T20:15:09.891Z,100.00
2023-03-27T20:17:40.044Z,100.00
2023-03-27T20:20:13.103Z,100.00
2023-03-27T20:22:54.251Z,100.00
2023-03-27T20:25:23.741Z,100.00
2023-03-27T20:27:50.400Z,100.00
2023-03-27T20:30:17.125Z,100.00
2023-03-27T20:32:43.906Z,100.00
2023-03-27T20:35:22.819Z,100.00
2023-03-27T20:37:56.360Z,100.00
2023-03-27T20:40:24.739Z,100.00
2023-03-27T20:43:03.851Z,100.00
2023-03-27T20:45:31.183Z,100.00
2023-03-27T20:48:03.815Z,100.00
2023-03-27T20:50:31.677Z,100.00
2023-03-27T20:52:58.408Z,100.00
2023-03-27T20:55:33.677Z,100.00
2023-03-27T20:58:06.627Z,100.00
2023-03-27T21:00:33.607Z,100.00
2023-03-27T21:03:00.433Z,100.00
2023-03-27T21:05:27.748Z,100.00
2023-03-27T21:07:54.393Z,100.00
2023-03-27T21:10:21.351Z,100.00
2023-03-27T21:12:48.703Z,100.00
2023-03-27T21:15:15.560Z,100.00
2023-03-27T21:17:42.413Z,100.00
2023-03-27T21:20:10.378Z,100.00
2023-03-27T21:22:37.004Z,100.00
2023-03-27T21:25:03.790Z,100.00
2023-03-27T21:27:31.106Z,100.00
2023-03-27T21:29:57.894Z,100.00
2023-03-27T21:32:24.729Z,100.00
2023-03-27T21:34:51.395Z,100.00
2023-03-27T21:37:18.006Z,100.00
2023-03-27T21:39:44.640Z,100.00
2023-03-27T21:42:11.879Z,100.00
2023-03-27T21:44:38.505Z,100.00
2023-03-27T21:47:05.221Z,100.00
2023-03-27T21:49:31.881Z,100.00
2023-03-27T21:51:58.497Z,100.00
2023-03-27T21:54:25.273Z,100.00
2023-03-27T21:56:51.906Z,100.00
2023-03-27T21:59:18.529Z,100.00
2023-03-27T22:01:45.250Z,100.00
2023-03-27T22:04:11.934Z,100.00
2023-03-27T22:06:38.559Z,100.00
2023-03-27T22:09:05.242Z,100.00
2023-03-27T22:11:31.856Z,100.00
2023-03-27T22:13:59.307Z,100.00
2023-03-27T22:16:26.114Z,100.00
2023-03-27T22:18:52.736Z,100.00
2023-03-27T22:21:25.839Z,100.00
2023-03-27T22:23:54.034Z,100.00
2023-03-27T22:26:26.259Z,100.00
2023-03-27T22:28:52.875Z,100.00
2023-03-27T22:31:21.331Z,100.00
2023-03-27T22:33:48.961Z,100.00
2023-03-27T22:36:15.792Z,100.00
2023-03-27T22:38:43.246Z,100.00
2023-03-27T22:41:12.732Z,100.00
2023-03-27T22:43:39.633Z,100.00
2023-03-27T22:46:14.393Z,100.00
2023-03-27T22:48:41.403Z,100.00
2023-03-27T22:51:09.758Z,100.00
2023-03-27T22:53:37.429Z,100.00
2023-03-27T22:56:04.797Z,100.00
2023-03-27T22:58:32.262Z,100.00
2023-03-27T23:00:59.636Z,100.00
2023-03-27T23:03:28.080Z,100.00
2023-03-27T23:05:55.362Z,100.00
2023-03-27T23:08:24.316Z,100.00
2023-03-27T23:10:56.308Z,100.00
2023-03-27T23:13:23.857Z,100.00
2023-03-27T23:15:51.907Z,100.00
2023-03-27T23:18:23.755Z,100.00
2023-03-27T23:20:59.865Z,100.00
2023-03-27T23:23:27.918Z,100.00
2023-03-27T23:25:55.632Z,100.00
2023-03-27T23:28:22.329Z,100.00
2023-03-27T23:30:53.248Z,100.00
2023-03-27T23:33:19.918Z,100.00
2023-03-27T23:35:47.090Z,100.00
2023-03-27T23:38:13.776Z,100.00
2023-03-27T23:40:40.549Z,100.00
2023-03-27T23:43:07.181Z,100.00
2023-03-27T23:45:33.868Z,100.00
2023-03-27T23:48:00.531Z,100.00
2023-03-27T23:50:27.530Z,100.00
2023-03-27T23:52:54.150Z,100.00
2023-03-27T23:55:20.785Z,100.00
2023-03-27T23:57:47.372Z,100.00
